Terminal Aerodrome Forecast
Issued by NWS Louisville, KY

Home | Current Version | Previous Version | Text Only | Print | Product List | Glossary On
Versions: 1 2 3 4 5 6 7 8 9 10 11 12 13 14 15 16 17
745
FTUS43 KLMK 180920 AAA
TAFLEX
TAF AMD
KLEX 180920Z 1809/1906 18016G26KT P6SM VCSH BKN050 WS018/19045KT
     FM181400 20018G28KT P6SM VCSH OVC022
     FM181600 20022G32KT P6SM VCSH OVC017
     FM181900 20024G34KT 6SM -SHRA OVC017
     FM182100 20025G35KT 5SM -SHRA VCTS OVC015CB
     FM182300 29026G36KT P6SM VCSH OVC016
     FM190300 30017G27KT P6SM OVC016=

USA.gov is the U.S. government's official web portal to all federal, state and local government web resources and services.